createdAt,value
2022-10-29T00:01:43.241Z,17.52
2022-10-29T00:04:09.377Z,17.54
2022-10-29T00:06:35.774Z,17.56
2022-10-29T00:09:01.960Z,17.55
2022-10-29T00:11:28.082Z,17.45
2022-10-29T00:13:54.173Z,17.44
2022-10-29T00:16:20.281Z,17.47
2022-10-29T00:18:46.389Z,17.37
2022-10-29T00:21:12.492Z,17.29
2022-10-29T00:23:38.581Z,17.33
2022-10-29T00:26:04.824Z,17.30
2022-10-29T00:28:30.954Z,17.38
2022-10-29T00:30:57.061Z,17.38
2022-10-29T00:33:23.182Z,17.34
2022-10-29T00:35:49.302Z,17.32
2022-10-29T00:38:15.411Z,17.34
2022-10-29T00:40:41.568Z,17.34
2022-10-29T00:43:07.666Z,17.38
2022-10-29T00:45:33.772Z,17.35
2022-10-29T00:47:59.887Z,17.22
2022-10-29T00:50:25.975Z,17.18
2022-10-29T00:52:52.068Z,17.07
2022-10-29T00:55:18.175Z,17.16
2022-10-29T00:57:44.311Z,17.24
2022-10-29T01:00:10.431Z,17.19
2022-10-29T01:02:36.640Z,17.11
2022-10-29T01:05:02.857Z,17.18
2022-10-29T01:07:28.967Z,17.17
2022-10-29T01:09:55.607Z,17.25
2022-10-29T01:12:21.707Z,17.21
2022-10-29T01:14:47.806Z,17.21
2022-10-29T01:17:16.864Z,17.21
2022-10-29T01:19:44.111Z,17.23
2022-10-29T01:22:10.219Z,17.22
2022-10-29T01:24:36.373Z,17.26
2022-10-29T01:27:02.464Z,17.30
2022-10-29T01:29:28.560Z,17.27
2022-10-29T01:31:54.697Z,17.25
2022-10-29T01:34:20.796Z,17.28
2022-10-29T01:36:46.918Z,17.30
2022-10-29T01:39:13.020Z,17.28
2022-10-29T01:41:39.127Z,17.23
2022-10-29T01:44:05.229Z,17.27
2022-10-29T01:46:31.614Z,17.23
2022-10-29T01:48:57.715Z,17.16
2022-10-29T01:51:23.842Z,17.08
2022-10-29T01:53:49.961Z,17.07
2022-10-29T01:56:16.068Z,17.13
2022-10-29T01:58:42.163Z,17.09
2022-10-29T02:01:08.336Z,17.12
2022-10-29T02:03:34.485Z,17.15
2022-10-29T02:06:00.585Z,17.09
2022-10-29T02:08:26.696Z,17.07
2022-10-29T02:10:52.795Z,17.09
2022-10-29T02:13:18.939Z,17.10
2022-10-29T02:15:45.087Z,17.13
2022-10-29T02:18:11.185Z,17.13
2022-10-29T02:20:37.280Z,17.08
2022-10-29T02:23:03.404Z,17.07
2022-10-29T02:25:29.548Z,17.03
2022-10-29T02:27:55.971Z,17.04
2022-10-29T02:30:22.319Z,17.08
2022-10-29T02:32:48.402Z,16.99
2022-10-29T02:35:14.500Z,17.01
2022-10-29T02:37:40.614Z,17.02
2022-10-29T02:40:06.714Z,16.85
2022-10-29T02:42:32.808Z,16.79
2022-10-29T02:44:58.932Z,16.80
2022-10-29T02:47:25.058Z,16.87
2022-10-29T02:49:51.161Z,16.73
2022-10-29T02:52:17.644Z,16.59
2022-10-29T02:54:43.735Z,16.52
2022-10-29T02:57:09.843Z,16.61
2022-10-29T02:59:36.012Z,16.55
2022-10-29T03:02:02.233Z,16.58
2022-10-29T03:04:28.428Z,16.51
2022-10-29T03:06:54.538Z,16.48
2022-10-29T03:09:20.660Z,16.39
2022-10-29T03:11:46.756Z,16.43
2022-10-29T03:14:12.881Z,16.51
2022-10-29T03:16:38.994Z,16.44
2022-10-29T03:19:05.081Z,16.39
2022-10-29T03:21:31.591Z,16.35
2022-10-29T03:23:57.686Z,16.31
2022-10-29T03:26:23.773Z,16.32
2022-10-29T03:28:49.903Z,16.31
2022-10-29T03:31:16.019Z,16.29
2022-10-29T03:33:42.115Z,16.10
2022-10-29T03:36:08.279Z,16.11
2022-10-29T03:38:34.462Z,16.02
2022-10-29T03:41:00.566Z,16.03
2022-10-29T03:43:26.682Z,16.05
2022-10-29T03:45:52.779Z,16.11
2022-10-29T03:48:18.872Z,16.17
2022-10-29T03:50:45.024Z,16.20
2022-10-29T03:53:11.120Z,16.04
2022-10-29T03:55:37.224Z,15.84
2022-10-29T03:58:03.370Z,15.81
2022-10-29T04:00:29.491Z,15.87
2022-10-29T04:02:55.847Z,15.98
2022-10-29T04:05:22.206Z,16.02
2022-10-29T04:07:48.309Z,15.95
2022-10-29T04:10:14.413Z,15.92
2022-10-29T04:12:40.556Z,15.86
2022-10-29T04:15:06.652Z,15.89
2022-10-29T04:17:32.763Z,16.02
2022-10-29T04:19:58.903Z,15.96
2022-10-29T04:24:48.721Z,15.95
2022-10-29T04:30:43.307Z,16.02
2022-10-29T04:33:10.999Z,16.00
2022-10-29T04:35:37.092Z,16.06
2022-10-29T04:38:03.219Z,16.04
2022-10-29T04:40:29.316Z,16.03
2022-10-29T04:42:55.802Z,16.01
2022-10-29T04:45:22.154Z,16.05
2022-10-29T04:47:48.244Z,16.07
2022-10-29T04:50:14.339Z,16.05
2022-10-29T04:52:40.474Z,15.96
2022-10-29T04:55:06.580Z,15.93
2022-10-29T04:57:32.671Z,15.96
2022-10-29T04:59:59.071Z,16.01
2022-10-29T05:02:25.165Z,16.00
2022-10-29T05:04:51.265Z,15.84
2022-10-29T05:07:17.381Z,15.70
2022-10-29T05:09:43.466Z,15.57
2022-10-29T05:12:09.558Z,15.51
2022-10-29T05:14:35.694Z,15.64
2022-10-29T05:17:01.860Z,15.57
2022-10-29T05:19:27.984Z,15.60
2022-10-29T05:21:54.088Z,15.67
2022-10-29T05:24:20.186Z,15.67
2022-10-29T05:26:46.277Z,15.72
2022-10-29T05:29:12.440Z,15.76
2022-10-29T05:31:38.527Z,15.81
2022-10-29T05:34:04.663Z,15.86
2022-10-29T05:36:30.817Z,15.91
2022-10-29T05:38:56.936Z,15.93
2022-10-29T05:41:23.032Z,15.99
2022-10-29T05:43:49.152Z,15.98
2022-10-29T05:46:15.249Z,15.95
2022-10-29T05:48:41.358Z,15.90
2022-10-29T05:51:07.472Z,15.86
2022-10-29T05:53:33.609Z,15.74
2022-10-29T05:55:59.716Z,15.59
2022-10-29T05:58:25.830Z,15.62
2022-10-29T06:00:51.944Z,15.51
2022-10-29T06:03:18.061Z,15.58
2022-10-29T06:05:44.184Z,15.59
2022-10-29T06:08:10.276Z,15.59
2022-10-29T06:10:36.353Z,15.55
2022-10-29T06:13:02.457Z,15.57
2022-10-29T06:15:28.569Z,15.61
2022-10-29T06:17:54.907Z,15.61
2022-10-29T06:20:21.234Z,15.63
2022-10-29T06:22:47.327Z,15.65
2022-10-29T06:25:13.407Z,15.64
2022-10-29T06:27:39.521Z,15.63
2022-10-29T06:30:05.621Z,15.57
2022-10-29T06:32:31.712Z,15.62
2022-10-29T06:34:57.828Z,15.58
2022-10-29T06:37:24.296Z,15.60
2022-10-29T06:39:50.499Z,15.62
2022-10-29T06:42:16.607Z,15.60
2022-10-29T06:44:42.716Z,15.59
2022-10-29T06:47:08.832Z,15.66
2022-10-29T06:49:34.940Z,15.74
2022-10-29T06:52:01.041Z,15.68
2022-10-29T06:54:27.125Z,15.60
2022-10-29T06:56:53.233Z,15.53
2022-10-29T06:59:19.336Z,15.47
2022-10-29T07:01:45.458Z,15.57
2022-10-29T07:04:12.128Z,15.69
2022-10-29T07:06:38.233Z,15.68
2022-10-29T07:09:04.370Z,15.82
2022-10-29T07:11:30.491Z,16.15
2022-10-29T07:13:56.621Z,16.26
2022-10-29T07:16:22.714Z,16.04
2022-10-29T07:18:48.848Z,16.24
2022-10-29T07:21:14.972Z,16.27
2022-10-29T07:23:41.068Z,16.02
2022-10-29T07:26:07.474Z,16.05
2022-10-29T07:28:33.579Z,16.11
2022-10-29T07:30:59.694Z,16.16
2022-10-29T07:33:25.818Z,16.22
2022-10-29T07:35:51.918Z,16.23
2022-10-29T07:38:18.015Z,16.22
2022-10-29T07:40:44.166Z,16.35
2022-10-29T07:43:10.268Z,16.67
2022-10-29T07:45:36.376Z,16.38
2022-10-29T07:48:03.264Z,16.45
2022-10-29T07:50:29.517Z,16.55
2022-10-29T07:52:55.864Z,16.63
2022-10-29T07:55:22.144Z,16.68
2022-10-29T07:57:48.257Z,16.76
2022-10-29T08:00:14.362Z,16.84
2022-10-29T08:02:40.840Z,16.90
2022-10-29T08:05:06.991Z,16.95
2022-10-29T08:07:33.092Z,17.28
2022-10-29T08:09:59.211Z,17.10
2022-10-29T08:12:25.317Z,17.11
2022-10-29T08:14:51.443Z,17.16
2022-10-29T08:17:17.577Z,17.20
2022-10-29T08:19:43.681Z,17.25
2022-10-29T08:22:09.774Z,17.33
2022-10-29T08:24:35.911Z,17.39
2022-10-29T08:27:02.049Z,17.50
2022-10-29T08:29:28.166Z,17.56
2022-10-29T08:31:54.327Z,17.60
2022-10-29T08:34:20.428Z,17.66
2022-10-29T08:36:46.515Z,17.71
2022-10-29T08:39:12.652Z,17.74
2022-10-29T08:41:38.753Z,17.78
2022-10-29T08:44:04.859Z,17.82
2022-10-29T08:46:30.979Z,17.91
2022-10-29T08:48:57.148Z,17.95
2022-10-29T08:51:23.244Z,18.00
2022-10-29T08:53:58.708Z,18.03
2022-10-29T08:56:35.433Z,18.07
2022-10-29T08:59:01.595Z,18.09
2022-10-29T09:01:27.801Z,18.09
2022-10-29T09:03:54.001Z,18.09
2022-10-29T09:06:20.596Z,18.16
2022-10-29T09:08:46.697Z,18.20
2022-10-29T09:11:12.800Z,18.29
2022-10-29T09:13:38.944Z,18.35
2022-10-29T09:16:05.038Z,18.38
2022-10-29T09:18:31.204Z,18.42
2022-10-29T09:20:57.325Z,18.46
2022-10-29T09:23:23.440Z,18.49
2022-10-29T09:25:49.553Z,18.55
2022-10-29T09:28:15.670Z,18.61
2022-10-29T09:30:41.784Z,18.66
2022-10-29T09:33:07.893Z,18.81
2022-10-29T09:35:34.035Z,18.92
2022-10-29T09:38:00.470Z,19.05
2022-10-29T09:40:26.767Z,19.16
2022-10-29T09:42:52.911Z,19.25
2022-10-29T09:45:19.014Z,19.28
2022-10-29T09:47:45.124Z,19.35
2022-10-29T09:50:11.281Z,19.41
2022-10-29T09:52:37.389Z,19.48
2022-10-29T09:55:03.491Z,19.54
2022-10-29T09:57:29.606Z,19.59
2022-10-29T09:59:55.712Z,19.66
2022-10-29T10:02:21.832Z,19.75
2022-10-29T10:04:47.972Z,19.84
2022-10-29T10:07:14.065Z,19.91
2022-10-29T10:09:40.214Z,19.97
2022-10-29T10:12:06.329Z,20.08
2022-10-29T10:14:32.424Z,20.14
2022-10-29T10:16:58.538Z,20.17
2022-10-29T10:19:24.651Z,20.18
2022-10-29T10:21:50.757Z,20.17
2022-10-29T10:24:16.900Z,20.15
2022-10-29T10:26:43.036Z,20.23
2022-10-29T10:29:09.174Z,20.30
2022-10-29T10:31:35.283Z,20.35
2022-10-29T10:34:01.399Z,20.41
2022-10-29T10:36:27.488Z,20.47
2022-10-29T10:38:53.566Z,20.48
2022-10-29T10:41:20.085Z,20.51
2022-10-29T10:43:46.179Z,20.55
2022-10-29T10:46:12.270Z,20.55
2022-10-29T10:48:38.392Z,20.56
2022-10-29T10:51:04.505Z,20.62
2022-10-29T10:53:30.604Z,20.67
2022-10-29T10:55:56.724Z,20.68
2022-10-29T10:58:22.832Z,20.66
2022-10-29T11:00:48.963Z,20.69
2022-10-29T11:03:15.208Z,20.71
2022-10-29T11:05:41.337Z,20.72
2022-10-29T11:08:07.434Z,20.77
2022-10-29T11:10:33.561Z,20.88
2022-10-29T11:12:59.666Z,20.92
2022-10-29T11:15:25.773Z,20.94
2022-10-29T11:17:54.361Z,20.96
2022-10-29T11:20:20.773Z,20.97
2022-10-29T11:22:46.872Z,21.01
2022-10-29T11:25:12.986Z,21.06
2022-10-29T11:27:39.072Z,21.08
2022-10-29T11:30:05.184Z,21.13
2022-10-29T11:32:31.316Z,21.15
2022-10-29T11:34:57.433Z,21.21
2022-10-29T11:37:23.535Z,21.36
2022-10-29T11:39:49.667Z,21.42
2022-10-29T11:42:15.769Z,21.45
2022-10-29T11:44:41.876Z,21.47
2022-10-29T11:47:07.988Z,21.49
2022-10-29T11:49:34.096Z,21.48
2022-10-29T11:52:00.194Z,21.53
2022-10-29T11:54:26.308Z,21.55
2022-10-29T11:56:52.398Z,21.48
2022-10-29T11:59:18.701Z,21.49
2022-10-29T12:01:45.063Z,21.50
2022-10-29T12:04:11.334Z,21.52
2022-10-29T12:06:37.434Z,21.53
2022-10-29T12:09:03.587Z,21.56
2022-10-29T12:11:29.683Z,21.57
2022-10-29T12:13:55.793Z,21.57
2022-10-29T12:16:21.900Z,21.53
2022-10-29T12:18:48.005Z,21.61
2022-10-29T12:21:14.113Z,21.58
2022-10-29T12:23:40.238Z,21.57
2022-10-29T12:26:06.351Z,21.60
2022-10-29T12:28:32.454Z,21.57
2022-10-29T12:30:58.562Z,21.58
2022-10-29T12:33:24.664Z,21.62
2022-10-29T12:35:50.812Z,21.56
2022-10-29T12:38:16.997Z,21.58
2022-10-29T12:40:43.086Z,21.61
2022-10-29T12:43:09.188Z,21.58
2022-10-29T12:45:43.419Z,21.57
2022-10-29T12:48:19.344Z,21.55
2022-10-29T12:50:45.459Z,21.59
2022-10-29T12:53:11.570Z,21.61
2022-10-29T12:55:37.667Z,21.63
2022-10-29T12:58:03.787Z,21.66
2022-10-29T13:00:29.910Z,21.67
2022-10-29T13:02:56.606Z,21.73
2022-10-29T13:05:23.076Z,21.79
2022-10-29T13:07:49.170Z,21.75
2022-10-29T13:10:15.261Z,21.78
2022-10-29T13:12:41.405Z,21.83
2022-10-29T13:15:07.495Z,21.91
2022-10-29T13:17:33.584Z,21.96
2022-10-29T13:19:59.699Z,21.99
2022-10-29T13:22:25.790Z,21.95
2022-10-29T13:24:51.895Z,22.02
2022-10-29T13:27:18.039Z,22.08
2022-10-29T13:29:44.137Z,22.13
2022-10-29T13:32:10.227Z,22.18
2022-10-29T13:34:36.350Z,22.15
2022-10-29T13:37:02.451Z,22.08
2022-10-29T13:39:28.548Z,22.09
2022-10-29T13:41:54.691Z,22.06
2022-10-29T13:44:20.815Z,21.99
2022-10-29T13:46:46.930Z,21.99
2022-10-29T13:49:13.352Z,22.04
2022-10-29T13:51:39.513Z,22.04
2022-10-29T13:54:05.691Z,22.11
2022-10-29T13:56:31.854Z,22.12
2022-10-29T13:58:57.945Z,22.13
2022-10-29T14:01:24.200Z,22.05
2022-10-29T14:03:50.401Z,22.03
2022-10-29T14:06:16.504Z,22.07
2022-10-29T14:08:42.597Z,22.07
2022-10-29T14:11:08.769Z,22.08
2022-10-29T14:13:34.868Z,22.16
2022-10-29T14:16:00.981Z,22.18
2022-10-29T14:18:27.104Z,22.20
2022-10-29T14:20:53.210Z,22.18
2022-10-29T14:23:19.300Z,22.18
2022-10-29T14:25:45.433Z,22.19
2022-10-29T14:28:11.523Z,22.13
2022-10-29T14:30:37.636Z,22.11
2022-10-29T14:33:03.737Z,22.11
2022-10-29T14:35:29.826Z,22.10
2022-10-29T14:37:56.133Z,22.05
2022-10-29T14:40:22.409Z,22.02
2022-10-29T14:42:48.530Z,22.00
2022-10-29T14:45:14.638Z,21.96
2022-10-29T14:47:40.758Z,21.93
2022-10-29T14:50:06.869Z,21.88
2022-10-29T14:52:32.960Z,21.84
2022-10-29T14:54:59.089Z,21.83
2022-10-29T14:57:25.179Z,21.81
2022-10-29T14:59:51.262Z,21.77
2022-10-29T15:02:36.894Z,21.77
2022-10-29T15:05:07.523Z,21.70
2022-10-29T15:07:33.920Z,21.66
2022-10-29T15:10:00.013Z,21.63
2022-10-29T15:12:26.119Z,21.59
2022-10-29T15:14:52.248Z,21.60
2022-10-29T15:17:18.382Z,21.56
2022-10-29T15:19:44.541Z,21.52
2022-10-29T15:22:10.998Z,21.47
2022-10-29T15:24:37.100Z,21.45
2022-10-29T15:27:03.193Z,21.39
2022-10-29T15:29:33.983Z,21.32
2022-10-29T15:32:07.689Z,21.29
2022-10-29T15:34:33.812Z,21.26
2022-10-29T15:36:59.911Z,21.25
2022-10-29T15:39:25.995Z,21.21
2022-10-29T15:41:52.098Z,21.18
2022-10-29T15:44:18.200Z,21.15
2022-10-29T15:46:44.302Z,21.11
2022-10-29T15:49:10.429Z,21.07
2022-10-29T15:51:36.580Z,20.99
2022-10-29T15:54:02.710Z,20.94
2022-10-29T15:56:28.831Z,20.88
2022-10-29T15:58:54.919Z,20.83
2022-10-29T16:01:21.107Z,20.77
2022-10-29T16:03:47.343Z,20.73
2022-10-29T16:06:13.474Z,20.68
2022-10-29T16:08:39.577Z,20.59
2022-10-29T16:11:05.749Z,20.55
2022-10-29T16:13:31.883Z,20.54
2022-10-29T16:15:57.981Z,20.49
2022-10-29T16:18:24.661Z,20.43
2022-10-29T16:20:50.757Z,20.40
2022-10-29T16:23:16.897Z,20.35
2022-10-29T16:25:43.071Z,20.33
2022-10-29T16:28:09.190Z,20.29
2022-10-29T16:30:35.424Z,20.25
2022-10-29T16:33:01.635Z,20.27
2022-10-29T16:35:27.732Z,20.21
2022-10-29T16:37:53.885Z,20.18
2022-10-29T16:40:20.052Z,20.15
2022-10-29T16:42:46.153Z,20.13
2022-10-29T16:45:12.254Z,20.08
2022-10-29T16:47:38.385Z,20.06
2022-10-29T16:50:04.566Z,20.04
2022-10-29T16:52:30.660Z,20.05
2022-10-29T16:54:57.153Z,20.00
2022-10-29T16:57:23.251Z,19.97
2022-10-29T16:59:49.341Z,19.97
2022-10-29T17:02:15.465Z,19.94
2022-10-29T17:04:41.616Z,19.94
2022-10-29T17:07:07.745Z,19.92
2022-10-29T17:09:33.873Z,19.88
2022-10-29T17:11:59.972Z,19.87
2022-10-29T17:14:26.064Z,19.85
2022-10-29T17:16:52.215Z,19.86
2022-10-29T17:19:18.312Z,19.86
2022-10-29T17:21:44.419Z,19.85
2022-10-29T17:24:11.023Z,19.82
2022-10-29T17:26:37.134Z,19.84
2022-10-29T17:29:03.245Z,19.81
2022-10-29T17:31:29.352Z,19.81
2022-10-29T17:33:55.442Z,19.78
2022-10-29T17:36:21.560Z,19.75
2022-10-29T17:38:47.674Z,19.76
2022-10-29T17:41:13.771Z,19.73
2022-10-29T17:43:39.884Z,19.73
2022-10-29T17:46:05.995Z,19.68
2022-10-29T17:48:32.110Z,19.73
2022-10-29T17:50:58.202Z,19.69
2022-10-29T17:53:24.324Z,19.68
2022-10-29T17:55:50.424Z,19.65
2022-10-29T17:58:18.154Z,19.63
2022-10-29T18:00:44.385Z,19.62
2022-10-29T18:03:10.483Z,19.62
2022-10-29T18:05:36.588Z,19.59
2022-10-29T18:08:02.714Z,19.59
2022-10-29T18:10:28.807Z,19.58
2022-10-29T18:12:54.915Z,19.56
2022-10-29T18:15:21.020Z,19.56
2022-10-29T18:17:47.161Z,19.55
2022-10-29T18:20:13.321Z,19.54
2022-10-29T18:22:39.423Z,19.53
2022-10-29T18:25:05.527Z,19.51
2022-10-29T18:27:31.632Z,19.49
2022-10-29T18:29:57.865Z,19.49
2022-10-29T18:32:23.957Z,19.48
2022-10-29T18:34:50.076Z,19.48
2022-10-29T18:37:16.218Z,19.48
2022-10-29T18:39:42.356Z,19.47
2022-10-29T18:42:08.453Z,19.48
2022-10-29T18:44:34.577Z,19.46
2022-10-29T18:47:00.683Z,19.43
2022-10-29T18:49:29.706Z,19.40
2022-10-29T18:51:55.848Z,19.41
2022-10-29T18:54:22.007Z,19.40
2022-10-29T18:56:48.190Z,19.40
2022-10-29T18:59:14.624Z,19.39
2022-10-29T19:01:40.838Z,19.39
2022-10-29T19:04:07.024Z,19.35
2022-10-29T19:06:33.187Z,19.34
2022-10-29T19:08:59.292Z,19.32
2022-10-29T19:11:25.391Z,19.32
2022-10-29T19:13:51.540Z,19.32
2022-10-29T19:16:17.635Z,19.29
2022-10-29T19:18:43.733Z,19.27
2022-10-29T19:21:09.873Z,19.30
2022-10-29T19:23:35.987Z,19.30
2022-10-29T19:26:02.088Z,19.28
2022-10-29T19:28:28.279Z,19.26
2022-10-29T19:30:54.386Z,19.24
2022-10-29T19:33:20.487Z,19.23
2022-10-29T19:35:46.616Z,19.20
2022-10-29T19:38:12.716Z,19.19
2022-10-29T19:40:38.824Z,19.20
2022-10-29T19:43:04.928Z,19.21
2022-10-29T19:45:31.014Z,19.20
2022-10-29T19:47:57.333Z,19.22
2022-10-29T19:52:54.925Z,19.26
2022-10-29T19:55:21.320Z,19.21
2022-10-29T19:57:47.428Z,19.22
2022-10-29T20:00:16.763Z,19.22
2022-10-29T20:02:43.941Z,19.18
2022-10-29T20:05:10.059Z,19.18
2022-10-29T20:07:36.162Z,19.19
2022-10-29T20:10:02.265Z,19.21
2022-10-29T20:12:28.381Z,19.15
2022-10-29T20:14:54.496Z,19.16
2022-10-29T20:17:20.593Z,19.18
2022-10-29T20:19:46.705Z,19.17
2022-10-29T20:22:12.797Z,19.18
2022-10-29T20:24:38.924Z,19.16
2022-10-29T20:27:05.041Z,19.15
2022-10-29T20:29:31.149Z,19.18
2022-10-29T20:31:57.242Z,19.14
2022-10-29T20:34:23.396Z,19.15
2022-10-29T20:36:49.577Z,19.18
2022-10-29T20:39:15.804Z,19.18
2022-10-29T20:41:41.910Z,19.13
2022-10-29T20:44:08.003Z,19.15
2022-10-29T20:46:36.117Z,19.14
2022-10-29T20:49:05.401Z,19.18
2022-10-29T20:51:31.496Z,19.17
2022-10-29T20:53:57.588Z,19.13
2022-10-29T20:56:23.698Z,19.11
2022-10-29T20:58:49.789Z,19.13
2022-10-29T21:01:16.008Z,19.11
2022-10-29T21:03:42.222Z,19.10
2022-10-29T21:06:13.862Z,19.07
2022-10-29T21:08:42.903Z,19.08
2022-10-29T21:11:09.085Z,19.08
2022-10-29T21:13:35.183Z,19.10
2022-10-29T21:16:01.282Z,19.09
2022-10-29T21:18:27.482Z,19.13
2022-10-29T21:20:53.579Z,19.10
2022-10-29T21:23:23.707Z,19.07
2022-10-29T21:25:50.227Z,19.10
2022-10-29T21:28:16.357Z,19.10
2022-10-29T21:30:42.444Z,19.10
2022-10-29T21:33:08.548Z,19.10
2022-10-29T21:35:34.645Z,19.09
2022-10-29T21:38:00.840Z,19.07
2022-10-29T21:40:26.970Z,19.04
2022-10-29T21:42:53.066Z,19.00
2022-10-29T21:45:19.147Z,18.97
2022-10-29T21:47:45.275Z,18.87
2022-10-29T21:50:11.385Z,18.82
2022-10-29T21:52:37.471Z,18.78
2022-10-29T21:55:03.574Z,18.80
2022-10-29T21:57:29.685Z,18.78
2022-10-29T21:59:55.776Z,18.74
2022-10-29T22:02:21.957Z,18.76
2022-10-29T22:04:48.071Z,18.71
2022-10-29T22:07:14.168Z,18.67
2022-10-29T22:09:40.290Z,18.67
2022-10-29T22:12:06.380Z,18.65
2022-10-29T22:14:32.474Z,18.62
2022-10-29T22:16:58.629Z,18.60
2022-10-29T22:19:24.722Z,18.57
2022-10-29T22:21:50.834Z,18.55
2022-10-29T22:24:16.936Z,18.57
2022-10-29T22:26:43.032Z,18.57
2022-10-29T22:29:09.131Z,18.61
2022-10-29T22:31:35.260Z,18.63
2022-10-29T22:34:01.355Z,18.60
2022-10-29T22:36:27.445Z,18.60
2022-10-29T22:38:53.839Z,18.59
2022-10-29T22:41:19.924Z,18.61
2022-10-29T22:43:46.059Z,18.64
2022-10-29T22:46:12.170Z,18.68
2022-10-29T22:48:38.253Z,18.71
2022-10-29T22:51:04.343Z,18.70
2022-10-29T22:53:30.448Z,18.73
2022-10-29T22:55:56.541Z,18.75
2022-10-29T22:58:22.649Z,18.77
2022-10-29T23:00:48.854Z,18.77
2022-10-29T23:03:14.968Z,18.79
2022-10-29T23:05:41.058Z,18.80
2022-10-29T23:08:07.173Z,18.82
2022-10-29T23:10:33.268Z,18.83
2022-10-29T23:12:59.409Z,18.84
2022-10-29T23:15:25.535Z,18.86
2022-10-29T23:17:51.672Z,18.87
2022-10-29T23:20:17.769Z,18.87
2022-10-29T23:22:43.910Z,18.92
2022-10-29T23:25:10.000Z,18.96
2022-10-29T23:27:36.119Z,18.98
2022-10-29T23:30:02.237Z,19.00
2022-10-29T23:32:28.332Z,19.01
2022-10-29T23:34:54.449Z,19.01
2022-10-29T23:37:20.723Z,19.02
2022-10-29T23:39:46.815Z,19.01
2022-10-29T23:42:12.920Z,19.04
2022-10-29T23:44:39.409Z,19.08
2022-10-29T23:47:05.500Z,19.09
2022-10-29T23:49:31.596Z,19.11
2022-10-29T23:51:57.704Z,19.12
2022-10-29T23:54:23.839Z,19.13
2022-10-29T23:56:49.956Z,19.12
2022-10-29T23:59:16.084Z,19.16
